Terminal Aerodrome Forecast
Issued by NWS Shreveport, LA

Home | Current Version | Previous Version | Text Only | Print | Product List | Glossary On
Versions: 1 2 3 4 5 6 7 8 9 10 11 12
000
FTUS44 KSHV 201751
TAFTYR
TAF
KTYR 201751Z 2018/2118 VRB04KT P6SM BKN045 BKN250
     FM202000 VRB05KT P6SM VCTS BKN050CB BKN120
     FM210000 15004KT P6SM SCT050 SCT120
     FM211400 17005KT P6SM BKN045=

USA.gov is the U.S. government's official web portal to all federal, state and local government web resources and services.